• Join FlightAware (Why Join?)
  • Login
  • US Flag 
08:54PM EST


 

Airport Tracker/Info


-or-


 

Live Flight TrackerFlight Track Log ✈ N931ED ✈ 11-Dec-2013 ✈ KOLM - KMSO

Flight Track Log - Related Links

Times and Time Zones

All times are in EST time to prevent confusion due to time zone crossing. See the N931ED flight status page for this flight to view local times or setup timezone preferences in your user account.

Time Position Orientation Groundspeed Altitude Reporting Facility
EST Latitude Longitude Course Direction KTS MPH feet Rate Location/Type
10:08AM 46.9503 -122.9056 135° Southeast 182 209 1,600  Level Seattle Center
10:09AM 46.9364 -122.8850 135° Southeast 171 197 3,300 4,260 Climbing Seattle Center
10:10AM 46.9083 -122.7950 114° Southeast 241 277 7,600 2,820 Climbing Seattle Center
10:11AM 46.8769 -122.6814 112° Southeast 296 341 9,000 1,440 Climbing Seattle Center
10:12AM 46.8447 -122.5636 112° Southeast 311 358 10,600 2,100 Climbing Seattle Center
10:13AM 46.8036 -122.4186 112° Southeast 355 409 13,300 3,120 Climbing Seattle Center
10:14AM 46.7611 -122.2797 114° Southeast 374 430 17,000 2,880 Climbing Seattle Center
10:15AM 46.7314 -122.1631 110° East 366 421 19,200 2,700 Climbing Seattle Center
10:16AM 46.7414 -122.0161 84° East 366 421 22,500 3,240 Climbing Seattle Center
10:17AM 46.7550 -121.8394 84° East 367 422 25,800 2,700 Climbing Seattle Center
10:18AM 46.7614 -121.6828 87° East 385 443 28,100 2,160 Climbing Seattle Center
10:19AM 46.7692 -121.5392 85° East 394 453 30,200 1,980 Climbing Seattle Center
10:20AM 46.7783 -121.3783 85° East 397 457 32,200 1,980 Climbing Seattle Center
10:21AM 46.7853 -121.2072 87° East 412 474 34,300 1,980 Climbing Seattle Center
10:22AM 46.7936 -121.0336 86° East 422 486 36,200 1,800 Climbing Seattle Center
10:23AM 46.8017 -120.8578 86° East 429 494 38,000 1,860 Climbing Seattle Center
10:24AM 46.8108 -120.6842 86° East 431 496 40,000 1,440 Climbing Seattle Center
10:25AM 46.8172 -120.5083 87° East 433 498 41,000 480 Climbing Seattle Center
10:26AM 46.8275 -120.2908 86° East 442 509 41,000  Level Seattle Center
10:27AM 46.8353 -120.1044 86° East 454 522 41,000  Level Seattle Center
10:28AM 46.8417 -119.9431 87° East 461 531 41,000  Level Seattle Center
10:29AM 46.8475 -119.7583 87° East 460 529 41,000  Level Seattle Center
10:30AM 46.8553 -119.5775 86° East 452 520 41,000  Level Seattle Center
10:31AM 46.8622 -119.3583 87° East 452 520 41,000  Level Seattle Center
10:32AM 46.8672 -119.1767 88° East 451 519 41,000  Level Seattle Center
10:33AM 46.8731 -118.9936 87° East 453 521 41,000  Level Seattle Center
10:34AM 46.8778 -118.8097 88° East 453 521 41,000  Level Seattle Center
10:35AM 46.8839 -118.6261 87° East 455 524 41,000  Level Seattle Center
10:36AM 46.8894 -118.4453 87° East 448 516 41,000  Level Seattle Center
10:37AM 46.8942 -118.2633 88° East 448 516 41,000  Level Seattle Center
10:38AM 46.8983 -118.0825 88° East 446 513 41,000  Level Seattle Center
10:39AM 46.9022 -117.9006 88° East 449 517 41,000  Level Seattle Center
10:40AM 46.9061 -117.7178 88° East 450 518 41,000  Level Seattle Center
10:41AM 46.9092 -117.5308 89° East 459 528 41,000  Level Seattle Center
10:42AM 46.9119 -117.3506 89° East 453 521 41,000  Level Seattle Center
10:43AM 46.9150 -117.1692 89° East 450 518 41,000  Level Seattle Center
10:44AM 46.9172 -116.9542 89° East 446 513 41,000 -960 Level Seattle Center
10:45AM 46.9192 -116.7700 89° East 453 521 39,100 -2,400 Descending Seattle Center
10:46AM 46.9211 -116.5842 89° East 458 527 36,200 -2,760 Descending Seattle Center
10:47AM 46.9214 -116.3944 90° East 466 536 33,600 -2,580 Descending Seattle Center
10:48AM 46.9242 -116.2069 89° East 466 536 31,000 -2,760 Descending Seattle Center
10:49AM 46.9242 -116.0244 90° East 455 524 28,100 -2,640 Descending Seattle Center
10:50AM 46.9247 -115.8431 90° East 451 519 25,700 -2,400 Descending Seattle Center
10:51AM 46.9253 -115.6700 90° East 434 499 23,300 -2,340 Descending Seattle Center
10:52AM 46.9258 -115.5000 90° East 425 489 21,000 -2,460 Descending Seattle Center
10:53AM 46.9261 -115.3922 90° East 418 481 19,600 -2,280 Descending Salt Lake Center
10:53AM 46.9256 -115.3283 91° East 411 473 18,700 -1,680 Descending Seattle Center
10:54AM 46.9261 -115.1719 90° East 395 455 17,100 -1,800 Descending Seattle Center
10:55AM 46.9739 -115.0469 61° Northeast 361 415 15,100 -1,560 Descending Seattle Center
10:56AM 47.0228 -114.9336 58° Northeast 338 389 14,000 -1,620 Descending Seattle Center
10:57AM 47.0681 -114.8211 59° Northeast 326 375 11,900 -2,040 Descending Seattle Center
10:58AM 47.1133 -114.7075 60° Northeast 325 374 10,000 -1,620 Descending Seattle Center
10:59AM 47.1456 -114.6289 59° Northeast 307 353 9,300 -840 Descending Salt Lake Center
11:00AM 47.1422 -114.5125 92° East 276 318 8,700 -360 Descending Salt Lake Center
11:01AM 47.1125 -114.4231 116° Southeast 252 290 8,600 -300 Descending Salt Lake Center
11:02AM 47.0728 -114.3622 134° Southeast 210 242 8,100 -960 Descending Salt Lake Center
11:03AM 47.0344 -114.2950 130° Southeast 202 232 6,700 -1,140 Descending Salt Lake Center
11:04AM 47.0042 -114.2422 130° Southeast 176 203 5,800 -1,020 Descending Salt Lake Center
11:05AM 46.9742 -114.1928 132° Southeast 167 192 4,700 -960 Descending Salt Lake Center
11:06AM 46.9467 -114.1439 129° Southeast 149 171 3,900 -780 Descending Salt Lake Center
11:07AM 46.9239 -114.1058 131° Southeast 129 148 3,200 -720 Descending Salt Lake Center